This is the latest recevied weather packets stored in our database for station/object OE3CJB-13. If no packets are shown the sender has not sent any weather packets the latest 10 day(s).
| Time | Temp. | Humidity | Pressure | Rain* | Wind** | Luminosity | Snow |
|---|---|---|---|---|---|---|---|
| 1777437065 | 5° C | 25% | 749.2 hPa | 0 mm | - | - | - |
| 1777436242 | 5° C | 22% | 749.1 hPa | 0 mm | - | - | - |
| 1777435285 | 5° C | 20% | 751.4 hPa | 0 mm | - | - | - |
| 1777434371 | 5.56° C | 18% | 751.2 hPa | 0 mm | - | - | - |
| 1777433465 | 5.56° C | 17% | 751.2 hPa | 0 mm | - | - | - |
| 1777432595 | 5.56° C | 16% | 752.7 hPa | 0 mm | - | - | - |
| 1777431637 | 6.11° C | 14% | 753.5 hPa | 0 mm | - | - | - |
| 1777430772 | 6.67° C | 12% | 754.3 hPa | 0 mm | - | - | - |
| 1777429865 | 6.67° C | 11% | 755 hPa | 0 mm | - | - | - |
| 1777428994 | 7.22° C | 10% | 755.6 hPa | 0 mm | - | - | - |
| 1777428246 | 7.22° C | 10% | 756.4 hPa | 0 mm | - | - | - |
| 1777427122 | 7.78° C | - | 758.6 hPa | 0 mm | - | - | - |
| 1777426266 | 7.78° C | - | 761 hPa | 0 mm | - | - | - |
| 1777425346 | 8.33° C | 11% | 764.1 hPa | 0 mm | - | - | - |
| 1777424485 | 8.33° C | 13% | 765.7 hPa | 0 mm | - | - | - |
| 1777422665 | 8.33° C | 14% | 768 hPa | 0 mm | - | - | - |
| 1777421746 | 8.89° C | 15% | 768.9 hPa | 0 mm | - | - | - |
| 1777420837 | 8.89° C | 16% | 768.8 hPa | 0 mm | - | - | - |
| 1777419922 | 9.44° C | 18% | 768.8 hPa | 0 mm | - | - | - |
| 1777419202 | 9.44° C | 17% | 769.6 hPa | 0 mm | - | - | - |
| 1777418146 | 9.44° C | 19% | 768.8 hPa | 0 mm | - | - | - |
| 1777417237 | 10° C | 22% | 769.6 hPa | 0 mm | - | - | - |
| 1777416322 | 10° C | 24% | 768.8 hPa | 0 mm | - | - | - |
| 1777415465 | 10.56° C | 21% | 769.5 hPa | 0 mm | - | - | - |
| 1777414594 | 10.56° C | 21% | 768.7 hPa | 0 mm | - | - | - |
* Rain latest hour (hover to see other rain measurements)
** Current wind speed in m/s (hover to see current wind gust speed)